createdAt,value
2019-03-31T00:01:53.579Z,68.52
2019-03-31T00:04:24.818Z,67.96
2019-03-31T00:06:56.043Z,68.68
2019-03-31T00:09:27.294Z,68.86
2019-03-31T00:11:58.601Z,68.37
2019-03-31T00:14:30.787Z,68.24
2019-03-31T00:17:02.079Z,68.42
2019-03-31T00:19:33.329Z,69.69
2019-03-31T00:22:04.738Z,70.03
2019-03-31T00:24:36.035Z,70.25
2019-03-31T00:27:10.231Z,71.93
2019-03-31T00:29:41.537Z,73.61
2019-03-31T00:32:12.802Z,74.44
2019-03-31T00:34:44.033Z,73.18
2019-03-31T00:37:15.325Z,72.78
2019-03-31T00:39:46.643Z,72.07
2019-03-31T00:42:17.981Z,72.30
2019-03-31T00:44:49.312Z,72.39
2019-03-31T00:47:22.347Z,72.10
2019-03-31T00:49:53.599Z,71.29
2019-03-31T00:52:24.877Z,70.70
2019-03-31T00:54:56.238Z,70.85
2019-03-31T00:57:27.568Z,70.74
2019-03-31T00:59:58.664Z,70.23
2019-03-31T01:02:32.366Z,70.09
2019-03-31T01:05:04.015Z,70.63
2019-03-31T01:07:35.741Z,70.29
2019-03-31T01:10:07.550Z,70.30
2019-03-31T01:12:39.128Z,71.40
2019-03-31T01:15:15.786Z,71.40
2019-03-31T01:17:47.324Z,70.91
2019-03-31T01:20:19.085Z,70.54
2019-03-31T01:22:50.485Z,71.03
2019-03-31T01:25:22.442Z,70.72
2019-03-31T01:27:54.008Z,70.47
2019-03-31T01:30:25.515Z,70.88
2019-03-31T01:32:57.245Z,70.97
2019-03-31T01:35:29.089Z,70.75
2019-03-31T01:38:00.356Z,71.14
2019-03-31T01:40:31.881Z,70.91
2019-03-31T01:43:03.307Z,71.01
2019-03-31T01:45:34.695Z,71.26
2019-03-31T01:48:07.243Z,71.35
2019-03-31T01:50:38.451Z,71.29
2019-03-31T01:53:09.664Z,70.89
2019-03-31T01:55:41.115Z,71.28
2019-03-31T01:58:12.774Z,71.80
2019-03-31T02:00:47.544Z,71.71
2019-03-31T02:03:18.837Z,72.39
2019-03-31T02:05:50.302Z,72.01
2019-03-31T02:08:21.670Z,72.00
2019-03-31T02:10:52.967Z,71.79
2019-03-31T02:13:24.207Z,71.69
2019-03-31T02:15:55.467Z,71.66
2019-03-31T02:18:26.658Z,71.26
2019-03-31T02:20:59.089Z,71.46
2019-03-31T02:23:30.497Z,71.68
2019-03-31T02:26:01.680Z,71.56
2019-03-31T02:28:32.889Z,73.43
2019-03-31T02:31:04.134Z,73.58
2019-03-31T02:33:35.446Z,73.57
2019-03-31T02:36:06.765Z,72.70
2019-03-31T02:38:37.985Z,73.70
2019-03-31T02:41:09.451Z,73.15
2019-03-31T02:43:40.816Z,74.14
2019-03-31T02:46:12.059Z,75.15
2019-03-31T02:48:43.388Z,76.37
2019-03-31T02:51:14.933Z,75.55
2019-03-31T02:53:46.102Z,76.37
2019-03-31T02:56:19.543Z,77.02
2019-03-31T02:58:52.224Z,77.39
2019-03-31T03:01:26.014Z,78.23
2019-03-31T03:03:59.302Z,78.78
2019-03-31T03:06:33.176Z,78.06
2019-03-31T03:09:06.805Z,78.27
2019-03-31T03:11:38.184Z,78.60
2019-03-31T03:14:10.408Z,79.58
2019-03-31T03:16:41.727Z,79.65
2019-03-31T03:19:12.928Z,81.04
2019-03-31T03:21:44.152Z,81.16
2019-03-31T03:24:15.357Z,80.84
2019-03-31T03:26:46.577Z,79.52
2019-03-31T03:29:17.705Z,79.61
2019-03-31T03:31:48.878Z,79.79
2019-03-31T03:34:20.054Z,80.22
2019-03-31T03:36:51.168Z,78.83
2019-03-31T03:39:22.416Z,78.14
2019-03-31T03:41:54.662Z,77.53
2019-03-31T03:44:26.012Z,77.41
2019-03-31T03:46:57.254Z,78.72
2019-03-31T03:49:28.556Z,79.17
2019-03-31T03:52:00.168Z,78.05
2019-03-31T03:54:31.416Z,77.37
2019-03-31T03:57:02.680Z,77.34
2019-03-31T03:59:33.876Z,78.41
2019-03-31T04:02:05.084Z,78.02
2019-03-31T04:04:36.305Z,78.36
2019-03-31T04:07:07.641Z,79.62
2019-03-31T04:09:38.860Z,79.55
2019-03-31T04:12:10.113Z,79.46
2019-03-31T04:14:41.384Z,79.71
2019-03-31T04:17:12.649Z,79.81
2019-03-31T04:19:43.993Z,80.35
2019-03-31T04:22:15.255Z,79.33
2019-03-31T04:24:46.436Z,79.77
2019-03-31T04:27:19.127Z,79.12
2019-03-31T04:29:50.594Z,78.17
2019-03-31T04:32:21.885Z,78.69
2019-03-31T04:34:53.245Z,79.63
2019-03-31T04:37:24.623Z,80.53
2019-03-31T04:39:55.855Z,79.96
2019-03-31T04:42:27.047Z,78.41
2019-03-31T04:44:58.469Z,78.67
2019-03-31T04:47:29.725Z,78.76
2019-03-31T04:50:01.021Z,79.80
2019-03-31T04:52:32.242Z,79.36
2019-03-31T04:55:03.481Z,78.72
2019-03-31T04:57:34.696Z,78.59
2019-03-31T05:00:06.071Z,78.01
2019-03-31T05:02:37.306Z,77.96
2019-03-31T05:05:08.582Z,78.99
2019-03-31T05:07:39.800Z,80.73
2019-03-31T05:10:11.309Z,80.06
2019-03-31T05:12:42.544Z,78.90
2019-03-31T05:15:13.736Z,78.31
2019-03-31T05:17:44.998Z,77.74
2019-03-31T05:20:16.286Z,77.71
2019-03-31T05:22:47.513Z,77.20
2019-03-31T05:25:18.908Z,76.68
2019-03-31T05:27:50.158Z,76.95
2019-03-31T05:30:21.262Z,77.92
2019-03-31T05:32:52.547Z,78.81
2019-03-31T05:35:26.945Z,79.13
2019-03-31T05:37:57.124Z,78.49
2019-03-31T05:40:30.692Z,77.73
2019-03-31T05:43:01.314Z,77.23
2019-03-31T05:45:32.617Z,76.87
2019-03-31T05:48:03.877Z,76.38
2019-03-31T05:50:35.077Z,76.12
2019-03-31T05:53:06.337Z,75.89
2019-03-31T05:55:37.622Z,75.13
2019-03-31T05:58:08.843Z,74.58
2019-03-31T06:00:48.201Z,74.02
2019-03-31T06:03:19.495Z,73.49
2019-03-31T06:05:50.762Z,74.31
2019-03-31T06:08:22.029Z,74.04
2019-03-31T06:10:53.227Z,73.96
2019-03-31T06:13:24.492Z,73.47
2019-03-31T06:15:55.818Z,73.21
2019-03-31T06:18:27.073Z,72.96
2019-03-31T06:20:58.247Z,73.28
2019-03-31T06:23:29.491Z,73.22
2019-03-31T06:26:00.787Z,73.05
2019-03-31T06:28:31.990Z,72.46
2019-03-31T06:31:03.351Z,72.05
2019-03-31T06:33:34.581Z,71.90
2019-03-31T06:36:06.627Z,71.48
2019-03-31T06:38:37.904Z,71.42
2019-03-31T06:41:09.169Z,71.46
2019-03-31T06:43:40.825Z,70.41
2019-03-31T06:46:12.033Z,69.97
2019-03-31T06:48:43.276Z,69.83
2019-03-31T06:51:17.066Z,69.42
2019-03-31T06:53:47.644Z,69.64
2019-03-31T06:56:18.812Z,68.53
2019-03-31T06:58:50.085Z,67.50
2019-03-31T07:01:21.416Z,66.29
2019-03-31T07:03:52.729Z,65.16
2019-03-31T07:06:24.067Z,64.60
2019-03-31T07:08:55.252Z,62.29
2019-03-31T07:11:26.560Z,60.24
2019-03-31T07:13:57.785Z,58.61
2019-03-31T07:16:28.948Z,56.70
2019-03-31T07:19:00.281Z,57.66
2019-03-31T07:21:31.518Z,56.83
2019-03-31T07:24:02.794Z,55.37
2019-03-31T07:26:33.929Z,53.70
2019-03-31T07:29:05.267Z,54.12
2019-03-31T07:31:36.445Z,52.29
2019-03-31T07:34:07.740Z,51.37
2019-03-31T07:36:38.883Z,50.91
2019-03-31T07:39:10.193Z,50.64
2019-03-31T07:41:41.542Z,50.43
2019-03-31T07:44:15.335Z,48.72
2019-03-31T07:46:45.885Z,48.61
2019-03-31T07:49:17.200Z,47.31
2019-03-31T07:51:48.545Z,45.61
2019-03-31T07:54:19.751Z,46.39
2019-03-31T07:56:50.963Z,46.43
2019-03-31T07:59:22.290Z,44.44
2019-03-31T08:01:53.382Z,43.61
2019-03-31T08:04:24.719Z,42.10
2019-03-31T08:06:56.025Z,40.81
2019-03-31T08:09:27.167Z,40.53
2019-03-31T08:11:58.436Z,39.51
2019-03-31T08:14:29.717Z,39.46
2019-03-31T08:17:01.030Z,39.48
2019-03-31T08:19:32.270Z,38.81
2019-03-31T08:22:03.523Z,38.38
2019-03-31T08:24:43.341Z,37.23
2019-03-31T08:27:16.346Z,37.47
2019-03-31T08:29:59.614Z,35.88
2019-03-31T08:32:20.672Z,34.25
2019-03-31T08:34:52.082Z,34.56
2019-03-31T08:37:23.476Z,34.39
2019-03-31T08:39:54.729Z,34.84
2019-03-31T08:42:26.172Z,33.79
2019-03-31T08:44:57.498Z,33.12
2019-03-31T08:47:28.720Z,32.38
2019-03-31T08:50:02.153Z,31.60
2019-03-31T08:52:33.009Z,30.98
2019-03-31T08:55:04.307Z,31.11
2019-03-31T08:57:35.570Z,31.04
2019-03-31T09:00:09.496Z,28.88
2019-03-31T09:02:40.774Z,28.59
2019-03-31T09:05:12.505Z,29.18
2019-03-31T09:07:43.900Z,27.35
2019-03-31T09:10:15.461Z,27.36
2019-03-31T09:12:48.550Z,27.46
2019-03-31T09:15:19.749Z,26.50
2019-03-31T09:17:54.088Z,26.63
2019-03-31T09:20:24.123Z,26.25
2019-03-31T09:22:55.376Z,26.85
2019-03-31T09:25:26.683Z,27.59
2019-03-31T09:27:58.037Z,27.50
2019-03-31T09:30:29.369Z,27.58
2019-03-31T09:33:00.610Z,26.78
2019-03-31T09:35:31.842Z,26.40
2019-03-31T09:38:03.156Z,26.08
2019-03-31T09:40:34.407Z,26.19
2019-03-31T09:43:05.666Z,26.14
2019-03-31T09:45:37.355Z,24.74
2019-03-31T09:48:08.670Z,23.32
2019-03-31T09:50:40.074Z,22.12
2019-03-31T09:53:11.400Z,22.05
2019-03-31T09:55:42.714Z,23.84
2019-03-31T09:58:14.227Z,23.32
2019-03-31T10:00:52.929Z,23.38
2019-03-31T10:03:24.361Z,23.59
2019-03-31T10:06:04.420Z,22.43
2019-03-31T10:08:28.752Z,23.08
2019-03-31T10:11:02.857Z,22.10
2019-03-31T10:13:33.559Z,22.36
2019-03-31T10:16:04.874Z,20.84
2019-03-31T10:18:36.222Z,20.41
2019-03-31T10:21:07.419Z,21.33
2019-03-31T10:23:38.724Z,19.70
2019-03-31T10:26:10.087Z,19.33
2019-03-31T10:28:43.306Z,19.88
2019-03-31T10:31:14.572Z,18.43
2019-03-31T10:33:45.768Z,18.66
2019-03-31T10:36:16.902Z,20.65
2019-03-31T10:38:48.206Z,19.91
2019-03-31T10:41:19.442Z,18.61
2019-03-31T10:43:50.722Z,19.21
2019-03-31T10:46:22.034Z,18.79
2019-03-31T10:48:53.396Z,18.23
2019-03-31T10:51:24.677Z,17.27
2019-03-31T10:53:56.030Z,19.42
2019-03-31T10:56:27.361Z,16.98
2019-03-31T10:58:58.712Z,17.49
2019-03-31T11:01:29.983Z,17.91
2019-03-31T11:04:01.313Z,15.33
2019-03-31T11:06:32.620Z,15.97
2019-03-31T11:09:06.187Z,15.75
2019-03-31T11:11:37.524Z,15.36
2019-03-31T11:14:08.763Z,16.62
2019-03-31T11:16:39.959Z,16.89
2019-03-31T11:19:11.233Z,16.79
2019-03-31T11:22:01.344Z,14.64
2019-03-31T11:24:32.668Z,15.22
2019-03-31T11:27:03.913Z,15.06
2019-03-31T11:29:35.250Z,15.92
2019-03-31T11:32:06.724Z,14.96
2019-03-31T11:34:37.973Z,14.58
2019-03-31T11:37:13.834Z,15.22
2019-03-31T11:39:42.288Z,14.62
2019-03-31T11:42:13.617Z,14.10
2019-03-31T11:44:44.994Z,14.05
2019-03-31T11:47:16.339Z,13.67
2019-03-31T11:49:47.678Z,14.29
2019-03-31T11:52:18.980Z,14.16
2019-03-31T11:54:50.148Z,14.03
2019-03-31T11:57:21.475Z,13.63
2019-03-31T11:59:52.815Z,13.02
2019-03-31T12:02:27.483Z,13.61
2019-03-31T12:04:58.208Z,12.67
2019-03-31T12:07:29.484Z,12.15
2019-03-31T12:10:01.004Z,12.21
2019-03-31T12:12:32.229Z,11.66
2019-03-31T12:15:03.604Z,13.16
2019-03-31T12:17:34.748Z,13.41
2019-03-31T12:20:06.605Z,12.98
2019-03-31T12:22:37.902Z,13.74
2019-03-31T12:25:09.394Z,13.66
2019-03-31T12:27:40.530Z,13.43
2019-03-31T12:30:12.014Z,13.52
2019-03-31T12:32:43.216Z,12.77
2019-03-31T12:35:14.464Z,13.59
2019-03-31T12:37:45.740Z,13.17
2019-03-31T12:40:34.388Z,12.76
2019-03-31T12:43:06.053Z,11.26
2019-03-31T12:45:37.319Z,11.01
2019-03-31T12:48:08.695Z,10.75
2019-03-31T12:50:40.101Z,9.86
2019-03-31T12:53:11.354Z,10.41
2019-03-31T12:55:42.694Z,10.09
2019-03-31T12:58:13.906Z,11.30
2019-03-31T13:00:45.270Z,10.94
2019-03-31T13:03:16.669Z,11.56
2019-03-31T13:05:47.905Z,11.27
2019-03-31T13:08:19.166Z,11.29
2019-03-31T13:10:50.504Z,10.59
2019-03-31T13:13:21.833Z,11.06
2019-03-31T13:15:53.087Z,11.07
2019-03-31T13:18:27.710Z,11.91
2019-03-31T13:20:57.359Z,11.26
2019-03-31T13:23:28.552Z,12.70
2019-03-31T13:25:59.815Z,13.65
2019-03-31T13:28:31.114Z,14.62
2019-03-31T13:31:02.556Z,15.08
2019-03-31T13:33:33.822Z,16.18
2019-03-31T13:36:05.104Z,15.80
2019-03-31T13:38:36.447Z,15.94
2019-03-31T13:41:07.773Z,17.43
2019-03-31T13:43:39.169Z,18.55
2019-03-31T13:46:10.570Z,18.18
2019-03-31T13:48:41.955Z,19.32
2019-03-31T13:51:13.380Z,20.56
2019-03-31T13:53:44.754Z,19.21
2019-03-31T13:56:16.514Z,19.72
2019-03-31T13:58:52.415Z,20.98
2019-03-31T14:01:21.102Z,21.85
2019-03-31T14:03:52.427Z,20.27
2019-03-31T14:06:23.710Z,20.52
2019-03-31T14:08:54.920Z,22.54
2019-03-31T14:11:26.124Z,21.63
2019-03-31T14:13:57.517Z,21.87
2019-03-31T14:16:29.213Z,22.81
2019-03-31T14:19:00.640Z,22.42
2019-03-31T14:21:32.031Z,22.89
2019-03-31T14:24:03.301Z,22.29
2019-03-31T14:26:34.572Z,22.18
2019-03-31T14:29:06.002Z,22.39
2019-03-31T14:31:37.319Z,21.14
2019-03-31T14:34:08.685Z,21.64
2019-03-31T14:36:40.005Z,20.35
2019-03-31T14:39:11.641Z,20.66
2019-03-31T14:41:42.934Z,20.57
2019-03-31T14:44:14.177Z,21.46
2019-03-31T14:46:45.510Z,21.44
2019-03-31T14:49:18.480Z,20.33
2019-03-31T14:51:49.914Z,19.80
2019-03-31T14:54:21.196Z,19.86
2019-03-31T14:56:52.458Z,19.84
2019-03-31T14:59:23.741Z,20.50
2019-03-31T15:01:55.053Z,21.78
2019-03-31T15:04:26.296Z,22.14
2019-03-31T15:06:57.581Z,22.43
2019-03-31T15:09:28.871Z,23.56
2019-03-31T15:12:00.443Z,24.33
2019-03-31T15:14:31.671Z,24.70
2019-03-31T15:17:02.979Z,25.96
2019-03-31T15:19:34.243Z,25.86
2019-03-31T15:22:05.502Z,27.11
2019-03-31T15:24:38.782Z,26.36
2019-03-31T15:27:09.912Z,26.90
2019-03-31T15:29:41.078Z,26.28
2019-03-31T15:32:15.272Z,26.68
2019-03-31T15:34:46.716Z,26.51
2019-03-31T15:37:20.766Z,28.85
2019-03-31T15:39:53.502Z,28.43
2019-03-31T15:42:26.845Z,29.36
2019-03-31T15:44:58.675Z,28.22
2019-03-31T15:47:48.873Z,28.24
2019-03-31T15:50:21.384Z,27.08
2019-03-31T15:52:53.619Z,26.62
2019-03-31T15:55:25.600Z,27.31
2019-03-31T15:58:05.294Z,26.74
2019-03-31T16:00:37.532Z,27.18
2019-03-31T16:03:09.568Z,26.92
2019-03-31T16:05:41.306Z,26.61
2019-03-31T16:08:12.693Z,26.14
2019-03-31T16:10:43.984Z,26.04
2019-03-31T16:13:15.138Z,26.18
2019-03-31T16:15:48.692Z,26.89
2019-03-31T16:18:19.967Z,27.65
2019-03-31T16:20:52.968Z,27.03
2019-03-31T16:23:23.384Z,27.25
2019-03-31T16:25:56.209Z,28.20
2019-03-31T16:28:26.635Z,27.43
2019-03-31T16:30:57.519Z,27.12
2019-03-31T16:33:27.916Z,27.43
2019-03-31T16:35:59.895Z,27.68
2019-03-31T16:38:31.542Z,27.30
2019-03-31T16:41:03.001Z,27.57
2019-03-31T16:43:45.648Z,27.95
2019-03-31T16:46:21.491Z,27.08
2019-03-31T16:48:54.609Z,27.27
2019-03-31T16:51:29.322Z,27.26
2019-03-31T16:54:02.089Z,28.61
2019-03-31T16:56:33.648Z,27.78
2019-03-31T16:59:05.775Z,28.59
2019-03-31T17:01:41.794Z,30.40
2019-03-31T17:04:13.791Z,30.01
2019-03-31T17:06:45.686Z,31.62
2019-03-31T17:09:24.749Z,31.41
2019-03-31T17:12:04.325Z,29.87
2019-03-31T17:14:35.754Z,29.26
2019-03-31T17:17:07.955Z,30.29
2019-03-31T17:19:42.407Z,30.21
2019-03-31T17:22:12.978Z,30.97
2019-03-31T17:24:43.470Z,33.20
2019-03-31T17:27:14.242Z,32.54
2019-03-31T17:29:44.841Z,33.34
2019-03-31T17:32:15.194Z,33.87
2019-03-31T17:34:45.673Z,32.50
2019-03-31T17:37:16.166Z,32.80
2019-03-31T17:39:46.699Z,33.78
2019-03-31T17:42:17.158Z,34.32
2019-03-31T17:44:47.514Z,35.59
2019-03-31T17:47:17.945Z,36.05
2019-03-31T17:49:48.424Z,36.39
2019-03-31T17:52:18.828Z,37.06
2019-03-31T17:54:49.247Z,37.18
2019-03-31T17:57:19.678Z,37.13
2019-03-31T17:59:50.100Z,37.96
2019-03-31T18:02:20.693Z,37.65
2019-03-31T18:04:51.080Z,38.45
2019-03-31T18:07:21.526Z,38.28
2019-03-31T18:09:52.045Z,38.52
2019-03-31T18:12:22.445Z,39.07
2019-03-31T18:14:52.974Z,39.98
2019-03-31T18:17:23.377Z,41.44
2019-03-31T18:19:53.845Z,42.93
2019-03-31T18:22:24.325Z,43.50
2019-03-31T18:24:54.929Z,44.24
2019-03-31T18:27:25.364Z,44.90
2019-03-31T18:29:55.883Z,44.87
2019-03-31T18:32:26.411Z,45.93
2019-03-31T18:34:56.958Z,46.26
2019-03-31T18:37:27.538Z,46.23
2019-03-31T18:39:57.809Z,46.35
2019-03-31T18:42:28.257Z,46.48
2019-03-31T18:44:58.694Z,46.76
2019-03-31T18:47:29.072Z,46.45
2019-03-31T18:49:59.534Z,46.44
2019-03-31T18:52:29.958Z,46.70
2019-03-31T18:55:28.619Z,46.89
2019-03-31T18:58:30.121Z,47.20
2019-03-31T19:01:11.155Z,47.05
2019-03-31T19:03:55.492Z,47.66
2019-03-31T19:06:50.267Z,47.56
2019-03-31T19:09:32.876Z,47.66
2019-03-31T19:12:21.180Z,47.69
2019-03-31T19:15:16.519Z,46.33
2019-03-31T19:18:07.297Z,47.47
2019-03-31T19:20:52.104Z,48.48
2019-03-31T19:23:56.842Z,49.19
2019-03-31T19:26:51.868Z,49.93
2019-03-31T19:29:38.344Z,50.19
2019-03-31T19:32:26.562Z,50.61
2019-03-31T19:35:25.214Z,50.82
2019-03-31T19:38:17.408Z,50.91
2019-03-31T19:41:15.669Z,49.84
2019-03-31T19:44:00.580Z,49.74
2019-03-31T19:46:41.610Z,50.53
2019-03-31T19:49:31.016Z,50.86
2019-03-31T19:52:19.226Z,51.42
2019-03-31T19:55:07.186Z,50.88
2019-03-31T19:57:53.980Z,51.06
2019-03-31T20:00:55.751Z,50.86
2019-03-31T20:03:57.584Z,51.25
2019-03-31T20:06:45.204Z,51.46
2019-03-31T20:09:33.529Z,51.80
2019-03-31T20:12:22.871Z,51.69
2019-03-31T20:15:04.560Z,50.34
2019-03-31T20:18:06.237Z,51.16
2019-03-31T20:21:00.801Z,50.67
2019-03-31T20:23:40.400Z,50.99
2019-03-31T20:26:39.079Z,50.11
2019-03-31T20:29:31.261Z,49.43
2019-03-31T20:32:36.099Z,48.52
2019-03-31T20:35:24.031Z,48.26
2019-03-31T20:38:18.183Z,48.76
2019-03-31T20:41:19.772Z,47.50
2019-03-31T20:43:58.099Z,47.22
2019-03-31T20:46:28.586Z,47.17
2019-03-31T20:48:59.077Z,47.24
2019-03-31T20:51:29.797Z,46.99
2019-03-31T20:54:00.724Z,47.02
2019-03-31T20:56:31.381Z,47.23
2019-03-31T20:59:01.969Z,47.05
2019-03-31T21:01:32.542Z,47.31
2019-03-31T21:04:03.225Z,47.68
2019-03-31T21:06:33.798Z,47.76
2019-03-31T21:09:06.590Z,47.35
2019-03-31T21:11:37.206Z,47.62
2019-03-31T21:14:07.543Z,47.89
2019-03-31T21:16:38.117Z,47.89
2019-03-31T21:19:08.646Z,48.69
2019-03-31T21:21:39.101Z,48.88
2019-03-31T21:24:13.462Z,49.32
2019-03-31T21:26:47.262Z,49.95
2019-03-31T21:29:20.734Z,50.21
2019-03-31T21:31:55.967Z,51.09
2019-03-31T21:34:28.394Z,51.52
2019-03-31T21:37:03.844Z,51.66
2019-03-31T21:39:37.680Z,52.34
2019-03-31T21:42:10.649Z,52.85
2019-03-31T21:44:44.952Z,53.16
2019-03-31T21:47:16.228Z,53.38
2019-03-31T21:49:46.773Z,53.73
2019-03-31T21:52:17.401Z,54.04
2019-03-31T21:54:47.863Z,54.54
2019-03-31T21:57:18.352Z,54.69
2019-03-31T21:59:48.662Z,55.45
2019-03-31T22:02:19.156Z,55.74
2019-03-31T22:04:49.677Z,55.91
2019-03-31T22:07:20.607Z,56.14
2019-03-31T22:09:51.167Z,56.56
2019-03-31T22:12:21.649Z,56.61
2019-03-31T22:14:52.165Z,57.08
2019-03-31T22:17:22.675Z,57.26
2019-03-31T22:19:53.091Z,57.39
2019-03-31T22:22:23.589Z,57.69
2019-03-31T22:24:54.413Z,57.99
2019-03-31T22:27:24.875Z,58.07
2019-03-31T22:29:55.341Z,58.43
2019-03-31T22:32:25.951Z,58.48
2019-03-31T22:34:56.408Z,58.85
2019-03-31T22:37:27.125Z,59.43
2019-03-31T22:39:57.723Z,59.37
2019-03-31T22:42:28.298Z,59.34
2019-03-31T22:44:58.699Z,59.40
2019-03-31T22:47:29.182Z,59.81
2019-03-31T22:49:59.627Z,60.05
2019-03-31T22:52:30.353Z,60.31
2019-03-31T22:55:01.026Z,60.31
2019-03-31T22:57:31.523Z,60.52
2019-03-31T23:00:02.010Z,60.60
2019-03-31T23:02:32.441Z,60.80
2019-03-31T23:05:02.922Z,60.45
2019-03-31T23:07:33.615Z,60.96
2019-03-31T23:10:04.153Z,61.25
2019-03-31T23:12:34.624Z,61.30
2019-03-31T23:15:05.172Z,61.08
2019-03-31T23:17:35.765Z,61.31
2019-03-31T23:20:06.654Z,61.51
2019-03-31T23:22:37.158Z,61.83
2019-03-31T23:25:07.829Z,62.21
2019-03-31T23:27:38.309Z,62.48
2019-03-31T23:30:10.444Z,62.57
2019-03-31T23:32:40.954Z,62.75
2019-03-31T23:35:11.417Z,62.65
2019-03-31T23:37:42.040Z,62.79
2019-03-31T23:40:12.422Z,63.18
2019-03-31T23:42:42.871Z,63.43
2019-03-31T23:45:13.232Z,63.82
2019-03-31T23:47:43.730Z,64.00
2019-03-31T23:50:14.290Z,64.10
2019-03-31T23:52:44.798Z,64.25
2019-03-31T23:55:15.219Z,64.42
2019-03-31T23:57:46.158Z,64.48
